sensor_id;sensor_type;location;lat;lon;timestamp;P1;durP1;ratioP1;P2;durP2;ratioP2
66384;SDS011;53426;55.872;37.462;2024-02-26T00:02:07;6.22;;;4.05;;
66384;SDS011;53426;55.872;37.462;2024-02-26T00:04:33;6.55;;;3.70;;
66384;SDS011;53426;55.872;37.462;2024-02-26T00:06:59;7.40;;;3.67;;
66384;SDS011;53426;55.872;37.462;2024-02-26T00:09:26;6.43;;;4.30;;
66384;SDS011;53426;55.872;37.462;2024-02-26T00:11:58;3.55;;;3.25;;
66384;SDS011;53426;55.872;37.462;2024-02-26T00:14:27;5.18;;;3.97;;
66384;SDS011;53426;55.872;37.462;2024-02-26T00:16:59;6.45;;;3.13;;
66384;SDS011;53426;55.872;37.462;2024-02-26T00:22:25;5.63;;;3.63;;
66384;SDS011;53426;55.872;37.462;2024-02-26T00:27:51;3.65;;;2.75;;
66384;SDS011;53426;55.872;37.462;2024-02-26T00:30:18;3.30;;;2.92;;
66384;SDS011;53426;55.872;37.462;2024-02-26T00:32:47;6.13;;;3.95;;
66384;SDS011;53426;55.872;37.462;2024-02-26T00:35:13;7.32;;;3.53;;
66384;SDS011;53426;55.872;37.462;2024-02-26T00:37:40;9.23;;;3.08;;
66384;SDS011;53426;55.872;37.462;2024-02-26T00:40:09;3.45;;;3.13;;
66384;SDS011;53426;55.872;37.462;2024-02-26T00:42:37;7.53;;;3.72;;
66384;SDS011;53426;55.872;37.462;2024-02-26T00:45:03;3.55;;;2.75;;
66384;SDS011;53426;55.872;37.462;2024-02-26T00:50:47;5.22;;;3.70;;
66384;SDS011;53426;55.872;37.462;2024-02-26T00:53:14;3.47;;;3.03;;
66384;SDS011;53426;55.872;37.462;2024-02-26T00:55:40;7.22;;;3.63;;
66384;SDS011;53426;55.872;37.462;2024-02-26T00:58:11;4.97;;;3.50;;
66384;SDS011;53426;55.872;37.462;2024-02-26T01:00:39;7.93;;;4.68;;
66384;SDS011;53426;55.872;37.462;2024-02-26T01:03:07;4.47;;;3.55;;
66384;SDS011;53426;55.872;37.462;2024-02-26T01:05:39;5.38;;;3.17;;
66384;SDS011;53426;55.872;37.462;2024-02-26T01:08:42;5.43;;;2.72;;
66384;SDS011;53426;55.872;37.462;2024-02-26T01:11:09;4.50;;;3.42;;
66384;SDS011;53426;55.872;37.462;2024-02-26T01:13:35;3.13;;;2.65;;
66384;SDS011;53426;55.872;37.462;2024-02-26T01:16:06;6.30;;;3.97;;
66384;SDS011;53426;55.872;37.462;2024-02-26T01:18:38;4.70;;;3.25;;
66384;SDS011;53426;55.872;37.462;2024-02-26T01:23:57;3.50;;;3.15;;
66384;SDS011;53426;55.872;37.462;2024-02-26T01:26:30;5.05;;;4.03;;
66384;SDS011;53426;55.872;37.462;2024-02-26T01:29:12;3.80;;;3.05;;
66384;SDS011;53426;55.872;37.462;2024-02-26T01:31:40;5.00;;;3.85;;
66384;SDS011;53426;55.872;37.462;2024-02-26T01:34:13;4.30;;;3.53;;
66384;SDS011;53426;55.872;37.462;2024-02-26T01:36:44;8.43;;;3.92;;
66384;SDS011;53426;55.872;37.462;2024-02-26T01:39:12;2.65;;;2.33;;
66384;SDS011;53426;55.872;37.462;2024-02-26T01:42:06;7.38;;;3.65;;
66384;SDS011;53426;55.872;37.462;2024-02-26T01:44:40;6.22;;;3.72;;
66384;SDS011;53426;55.872;37.462;2024-02-26T01:47:10;4.82;;;3.30;;
66384;SDS011;53426;55.872;37.462;2024-02-26T01:50:00;5.18;;;3.60;;
66384;SDS011;53426;55.872;37.462;2024-02-26T01:52:30;6.25;;;3.88;;
66384;SDS011;53426;55.872;37.462;2024-02-26T01:54:57;6.82;;;3.13;;
66384;SDS011;53426;55.872;37.462;2024-02-26T02:00:29;2.90;;;2.58;;
66384;SDS011;53426;55.872;37.462;2024-02-26T02:02:57;4.13;;;3.00;;
66384;SDS011;53426;55.872;37.462;2024-02-26T02:05:23;3.80;;;2.88;;
66384;SDS011;53426;55.872;37.462;2024-02-26T02:07:54;3.83;;;2.60;;
66384;SDS011;53426;55.872;37.462;2024-02-26T02:10:21;4.32;;;3.42;;
66384;SDS011;53426;55.872;37.462;2024-02-26T02:12:51;3.60;;;3.25;;
66384;SDS011;53426;55.872;37.462;2024-02-26T02:15:18;4.13;;;2.55;;
66384;SDS011;53426;55.872;37.462;2024-02-26T02:17:46;5.78;;;3.08;;
66384;SDS011;53426;55.872;37.462;2024-02-26T02:20:15;4.78;;;3.40;;
66384;SDS011;53426;55.872;37.462;2024-02-26T02:25:37;6.45;;;2.85;;
66384;SDS011;53426;55.872;37.462;2024-02-26T02:28:04;4.15;;;3.20;;
66384;SDS011;53426;55.872;37.462;2024-02-26T02:30:31;2.67;;;2.42;;
66384;SDS011;53426;55.872;37.462;2024-02-26T02:33:12;4.03;;;3.03;;
66384;SDS011;53426;55.872;37.462;2024-02-26T02:35:41;3.40;;;2.92;;
66384;SDS011;53426;55.872;37.462;2024-02-26T02:38:13;4.72;;;3.13;;
66384;SDS011;53426;55.872;37.462;2024-02-26T02:40:39;7.10;;;3.10;;
66384;SDS011;53426;55.872;37.462;2024-02-26T02:43:19;3.40;;;2.05;;
66384;SDS011;53426;55.872;37.462;2024-02-26T02:45:46;4.15;;;3.53;;
66384;SDS011;53426;55.872;37.462;2024-02-26T02:51:10;6.35;;;3.22;;
66384;SDS011;53426;55.872;37.462;2024-02-26T02:53:38;2.90;;;2.42;;
66384;SDS011;53426;55.872;37.462;2024-02-26T02:56:06;6.22;;;2.90;;
66384;SDS011;53426;55.872;37.462;2024-02-26T02:58:34;12.05;;;3.72;;
66384;SDS011;53426;55.872;37.462;2024-02-26T03:01:03;2.80;;;2.53;;
66384;SDS011;53426;55.872;37.462;2024-02-26T03:03:32;4.43;;;2.83;;
66384;SDS011;53426;55.872;37.462;2024-02-26T03:06:03;2.88;;;2.08;;
66384;SDS011;53426;55.872;37.462;2024-02-26T03:08:35;3.58;;;2.72;;
66384;SDS011;53426;55.872;37.462;2024-02-26T03:11:07;5.45;;;3.70;;
66384;SDS011;53426;55.872;37.462;2024-02-26T03:13:43;3.33;;;2.75;;
66384;SDS011;53426;55.872;37.462;2024-02-26T03:16:11;4.70;;;2.83;;
66384;SDS011;53426;55.872;37.462;2024-02-26T03:18:45;8.50;;;2.40;;
66384;SDS011;53426;55.872;37.462;2024-02-26T03:21:16;4.35;;;2.65;;
66384;SDS011;53426;55.872;37.462;2024-02-26T03:23:54;3.10;;;2.40;;
66384;SDS011;53426;55.872;37.462;2024-02-26T03:26:50;4.43;;;3.45;;
66384;SDS011;53426;55.872;37.462;2024-02-26T03:29:49;7.00;;;3.17;;
66384;SDS011;53426;55.872;37.462;2024-02-26T03:32:51;3.35;;;2.78;;
66384;SDS011;53426;55.872;37.462;2024-02-26T03:35:51;4.03;;;3.00;;
66384;SDS011;53426;55.872;37.462;2024-02-26T03:38:21;2.90;;;2.60;;
66384;SDS011;53426;55.872;37.462;2024-02-26T03:40:50;8.75;;;3.15;;
66384;SDS011;53426;55.872;37.462;2024-02-26T03:43:17;6.95;;;2.97;;
66384;SDS011;53426;55.872;37.462;2024-02-26T03:45:48;3.75;;;2.80;;
66384;SDS011;53426;55.872;37.462;2024-02-26T03:48:17;6.20;;;3.30;;
66384;SDS011;53426;55.872;37.462;2024-02-26T03:50:46;3.08;;;2.72;;
66384;SDS011;53426;55.872;37.462;2024-02-26T03:53:12;3.38;;;2.90;;
66384;SDS011;53426;55.872;37.462;2024-02-26T03:55:40;3.63;;;2.50;;
66384;SDS011;53426;55.872;37.462;2024-02-26T04:01:38;6.47;;;3.08;;
66384;SDS011;53426;55.872;37.462;2024-02-26T04:04:33;6.88;;;2.92;;
66384;SDS011;53426;55.872;37.462;2024-02-26T04:07:26;3.42;;;2.60;;
66384;SDS011;53426;55.872;37.462;2024-02-26T04:10:11;6.93;;;3.25;;
66384;SDS011;53426;55.872;37.462;2024-02-26T04:12:47;4.97;;;3.25;;
66384;SDS011;53426;55.872;37.462;2024-02-26T04:15:21;2.58;;;2.08;;
66384;SDS011;53426;55.872;37.462;2024-02-26T04:18:13;3.40;;;2.88;;
66384;SDS011;53426;55.872;37.462;2024-02-26T04:20:46;2.88;;;2.47;;
66384;SDS011;53426;55.872;37.462;2024-02-26T04:23:14;3.72;;;2.42;;
66384;SDS011;53426;55.872;37.462;2024-02-26T04:28:42;3.15;;;2.80;;
66384;SDS011;53426;55.872;37.462;2024-02-26T04:31:09;3.30;;;3.00;;
66384;SDS011;53426;55.872;37.462;2024-02-26T04:36:28;9.40;;;3.42;;
66384;SDS011;53426;55.872;37.462;2024-02-26T04:42:33;3.75;;;2.83;;
66384;SDS011;53426;55.872;37.462;2024-02-26T04:50:39;13.80;;;3.40;;
66384;SDS011;53426;55.872;37.462;2024-02-26T04:53:05;3.17;;;2.88;;
66384;SDS011;53426;55.872;37.462;2024-02-26T04:55:34;7.72;;;4.00;;
66384;SDS011;53426;55.872;37.462;2024-02-26T04:58:02;4.40;;;3.60;;
66384;SDS011;53426;55.872;37.462;2024-02-26T05:00:40;5.50;;;4.32;;
66384;SDS011;53426;55.872;37.462;2024-02-26T05:03:06;4.13;;;2.70;;
66384;SDS011;53426;55.872;37.462;2024-02-26T05:05:54;9.57;;;3.10;;
66384;SDS011;53426;55.872;37.462;2024-02-26T05:08:31;4.20;;;3.05;;
66384;SDS011;53426;55.872;37.462;2024-02-26T05:10:59;5.13;;;3.45;;
66384;SDS011;53426;55.872;37.462;2024-02-26T05:13:27;9.02;;;2.65;;
66384;SDS011;53426;55.872;37.462;2024-02-26T05:15:55;6.88;;;3.55;;
66384;SDS011;53426;55.872;37.462;2024-02-26T05:18:23;4.70;;;2.88;;
66384;SDS011;53426;55.872;37.462;2024-02-26T05:20:49;8.38;;;3.65;;
66384;SDS011;53426;55.872;37.462;2024-02-26T05:23:15;5.47;;;4.03;;
66384;SDS011;53426;55.872;37.462;2024-02-26T05:25:41;4.18;;;3.17;;
66384;SDS011;53426;55.872;37.462;2024-02-26T05:28:08;4.35;;;2.80;;
66384;SDS011;53426;55.872;37.462;2024-02-26T05:30:36;6.40;;;4.10;;
66384;SDS011;53426;55.872;37.462;2024-02-26T05:36:01;5.70;;;3.08;;
66384;SDS011;53426;55.872;37.462;2024-02-26T05:38:30;7.43;;;4.28;;
66384;SDS011;53426;55.872;37.462;2024-02-26T05:41:01;6.00;;;3.70;;
66384;SDS011;53426;55.872;37.462;2024-02-26T05:43:27;4.72;;;3.70;;
66384;SDS011;53426;55.872;37.462;2024-02-26T05:49:26;6.63;;;3.45;;
66384;SDS011;53426;55.872;37.462;2024-02-26T05:51:52;8.18;;;3.85;;
66384;SDS011;53426;55.872;37.462;2024-02-26T05:54:18;8.13;;;4.07;;
66384;SDS011;53426;55.872;37.462;2024-02-26T05:56:45;6.38;;;4.13;;
66384;SDS011;53426;55.872;37.462;2024-02-26T05:59:20;4.60;;;2.97;;
66384;SDS011;53426;55.872;37.462;2024-02-26T06:08:02;14.55;;;4.97;;
66384;SDS011;53426;55.872;37.462;2024-02-26T06:10:29;6.35;;;4.57;;
66384;SDS011;53426;55.872;37.462;2024-02-26T06:12:56;11.77;;;4.60;;
66384;SDS011;53426;55.872;37.462;2024-02-26T06:30:16;5.75;;;3.95;;
66384;SDS011;53426;55.872;37.462;2024-02-26T06:32:42;5.40;;;4.57;;
66384;SDS011;53426;55.872;37.462;2024-02-26T06:35:10;5.47;;;4.32;;
66384;SDS011;53426;55.872;37.462;2024-02-26T06:37:46;3.20;;;2.67;;
66384;SDS011;53426;55.872;37.462;2024-02-26T06:40:12;9.70;;;5.00;;
66384;SDS011;53426;55.872;37.462;2024-02-26T06:42:39;14.05;;;4.72;;
66384;SDS011;53426;55.872;37.462;2024-02-26T06:45:11;3.63;;;3.10;;
66384;SDS011;53426;55.872;37.462;2024-02-26T06:47:38;11.02;;;4.18;;
66384;SDS011;53426;55.872;37.462;2024-02-26T06:50:07;6.95;;;4.65;;
66384;SDS011;53426;55.872;37.462;2024-02-26T06:52:37;9.85;;;4.95;;
66384;SDS011;53426;55.872;37.462;2024-02-26T06:55:06;4.82;;;3.20;;
66384;SDS011;53426;55.872;37.462;2024-02-26T07:06:31;18.77;;;5.85;;
66384;SDS011;53426;55.872;37.462;2024-02-26T07:08:57;5.85;;;4.13;;
66384;SDS011;53426;55.872;37.462;2024-02-26T07:11:23;10.32;;;5.05;;
66384;SDS011;53426;55.872;37.462;2024-02-26T07:13:49;6.70;;;4.57;;
66384;SDS011;53426;55.872;37.462;2024-02-26T07:16:15;8.73;;;5.40;;
66384;SDS011;53426;55.872;37.462;2024-02-26T07:18:41;8.20;;;5.72;;
66384;SDS011;53426;55.872;37.462;2024-02-26T07:21:16;7.30;;;3.88;;
66384;SDS011;53426;55.872;37.462;2024-02-26T07:26:35;3.03;;;2.83;;
66384;SDS011;53426;55.872;37.462;2024-02-26T07:29:13;8.18;;;4.07;;
66384;SDS011;53426;55.872;37.462;2024-02-26T07:31:42;14.75;;;5.53;;
66384;SDS011;53426;55.872;37.462;2024-02-26T07:34:08;5.53;;;4.53;;
66384;SDS011;53426;55.872;37.462;2024-02-26T07:36:34;8.32;;;5.68;;
66384;SDS011;53426;55.872;37.462;2024-02-26T07:39:00;6.70;;;4.30;;
66384;SDS011;53426;55.872;37.462;2024-02-26T07:47:13;24.85;;;4.45;;
66384;SDS011;53426;55.872;37.462;2024-02-26T07:49:43;7.97;;;5.75;;
66384;SDS011;53426;55.872;37.462;2024-02-26T07:52:11;7.78;;;4.85;;
66384;SDS011;53426;55.872;37.462;2024-02-26T08:09:21;10.48;;;5.28;;
66384;SDS011;53426;55.872;37.462;2024-02-26T08:18:24;8.10;;;5.13;;
66384;SDS011;53426;55.872;37.462;2024-02-26T08:20:50;5.50;;;3.92;;
66384;SDS011;53426;55.872;37.462;2024-02-26T08:26:10;16.65;;;8.20;;
66384;SDS011;53426;55.872;37.462;2024-02-26T08:28:41;12.63;;;5.68;;
66384;SDS011;53426;55.872;37.462;2024-02-26T08:31:07;11.68;;;5.57;;
66384;SDS011;53426;55.872;37.462;2024-02-26T08:33:33;8.35;;;5.50;;
66384;SDS011;53426;55.872;37.462;2024-02-26T08:41:59;17.70;;;7.05;;
66384;SDS011;53426;55.872;37.462;2024-02-26T08:54:55;9.95;;;5.40;;
66384;SDS011;53426;55.872;37.462;2024-02-26T08:57:24;10.43;;;5.65;;
66384;SDS011;53426;55.872;37.462;2024-02-26T09:00:03;11.10;;;5.50;;
66384;SDS011;53426;55.872;37.462;2024-02-26T09:02:31;9.63;;;5.72;;
66384;SDS011;53426;55.872;37.462;2024-02-26T09:05:10;11.20;;;5.15;;
66384;SDS011;53426;55.872;37.462;2024-02-26T09:07:42;10.55;;;5.55;;
66384;SDS011;53426;55.872;37.462;2024-02-26T09:14:24;7.63;;;4.97;;
66384;SDS011;53426;55.872;37.462;2024-02-26T09:16:50;9.13;;;5.40;;
66384;SDS011;53426;55.872;37.462;2024-02-26T09:19:17;11.70;;;5.95;;
66384;SDS011;53426;55.872;37.462;2024-02-26T09:21:49;11.75;;;5.43;;
66384;SDS011;53426;55.872;37.462;2024-02-26T09:24:15;7.78;;;5.10;;
66384;SDS011;53426;55.872;37.462;2024-02-26T09:26:41;13.90;;;6.03;;
66384;SDS011;53426;55.872;37.462;2024-02-26T09:29:07;15.00;;;4.15;;
66384;SDS011;53426;55.872;37.462;2024-02-26T09:31:35;4.88;;;3.58;;
66384;SDS011;53426;55.872;37.462;2024-02-26T09:34:01;13.23;;;5.93;;
66384;SDS011;53426;55.872;37.462;2024-02-26T09:36:31;7.82;;;4.43;;
66384;SDS011;53426;55.872;37.462;2024-02-26T09:38:59;7.68;;;5.35;;
66384;SDS011;53426;55.872;37.462;2024-02-26T09:41:31;14.80;;;5.60;;
66384;SDS011;53426;55.872;37.462;2024-02-26T09:43:57;12.77;;;5.93;;
66384;SDS011;53426;55.872;37.462;2024-02-26T09:46:25;8.18;;;5.10;;
66384;SDS011;53426;55.872;37.462;2024-02-26T09:48:51;12.60;;;5.45;;
66384;SDS011;53426;55.872;37.462;2024-02-26T09:51:18;10.82;;;6.72;;
66384;SDS011;53426;55.872;37.462;2024-02-26T09:53:45;9.85;;;5.43;;
66384;SDS011;53426;55.872;37.462;2024-02-26T09:56:13;16.38;;;6.80;;
66384;SDS011;53426;55.872;37.462;2024-02-26T09:58:43;8.02;;;5.63;;
66384;SDS011;53426;55.872;37.462;2024-02-26T10:01:41;12.10;;;5.50;;
66384;SDS011;53426;55.872;37.462;2024-02-26T10:04:35;17.58;;;5.65;;
66384;SDS011;53426;55.872;37.462;2024-02-26T10:07:12;15.18;;;5.05;;
66384;SDS011;53426;55.872;37.462;2024-02-26T10:10:28;14.67;;;5.50;;
66384;SDS011;53426;55.872;37.462;2024-02-26T10:12:58;15.90;;;5.88;;
66384;SDS011;53426;55.872;37.462;2024-02-26T10:15:25;7.88;;;5.32;;
66384;SDS011;53426;55.872;37.462;2024-02-26T10:17:51;8.90;;;5.22;;
66384;SDS011;53426;55.872;37.462;2024-02-26T10:20:19;12.98;;;5.60;;
66384;SDS011;53426;55.872;37.462;2024-02-26T10:22:51;10.13;;;5.45;;
66384;SDS011;53426;55.872;37.462;2024-02-26T10:25:18;13.68;;;5.20;;
66384;SDS011;53426;55.872;37.462;2024-02-26T10:27:45;9.43;;;4.70;;
66384;SDS011;53426;55.872;37.462;2024-02-26T10:30:27;5.80;;;3.97;;
66384;SDS011;53426;55.872;37.462;2024-02-26T10:32:53;9.07;;;5.70;;
66384;SDS011;53426;55.872;37.462;2024-02-26T10:35:22;10.73;;;5.55;;
66384;SDS011;53426;55.872;37.462;2024-02-26T10:50:13;11.35;;;5.68;;
66384;SDS011;53426;55.872;37.462;2024-02-26T10:52:57;9.57;;;5.40;;
66384;SDS011;53426;55.872;37.462;2024-02-26T10:55:35;20.50;;;8.68;;
66384;SDS011;53426;55.872;37.462;2024-02-26T11:02:34;9.63;;;5.57;;
66384;SDS011;53426;55.872;37.462;2024-02-26T11:31:02;13.90;;;5.75;;
66384;SDS011;53426;55.872;37.462;2024-02-26T11:51:25;15.82;;;5.65;;
66384;SDS011;53426;55.872;37.462;2024-02-26T11:54:17;11.65;;;5.13;;
66384;SDS011;53426;55.872;37.462;2024-02-26T11:57:23;6.18;;;4.88;;
66384;SDS011;53426;55.872;37.462;2024-02-26T12:00:14;6.75;;;4.68;;
66384;SDS011;53426;55.872;37.462;2024-02-26T12:02:52;8.88;;;4.35;;
66384;SDS011;53426;55.872;37.462;2024-02-26T12:05:30;10.88;;;5.20;;
66384;SDS011;53426;55.872;37.462;2024-02-26T12:08:02;11.40;;;5.35;;
66384;SDS011;53426;55.872;37.462;2024-02-26T12:10:37;9.25;;;5.07;;
66384;SDS011;53426;55.872;37.462;2024-02-26T12:13:10;12.35;;;5.00;;
66384;SDS011;53426;55.872;37.462;2024-02-26T12:15:44;15.52;;;5.80;;
66384;SDS011;53426;55.872;37.462;2024-02-26T12:21:07;7.72;;;5.40;;
66384;SDS011;53426;55.872;37.462;2024-02-26T12:27:02;10.50;;;5.65;;
66384;SDS011;53426;55.872;37.462;2024-02-26T12:29:35;12.55;;;5.32;;
66384;SDS011;53426;55.872;37.462;2024-02-26T12:32:05;14.90;;;5.57;;
66384;SDS011;53426;55.872;37.462;2024-02-26T12:34:38;14.48;;;5.55;;
66384;SDS011;53426;55.872;37.462;2024-02-26T12:37:09;14.00;;;5.63;;
66384;SDS011;53426;55.872;37.462;2024-02-26T12:39:38;10.18;;;4.20;;
66384;SDS011;53426;55.872;37.462;2024-02-26T12:42:08;16.52;;;7.03;;
66384;SDS011;53426;55.872;37.462;2024-02-26T12:44:35;11.95;;;6.10;;
66384;SDS011;53426;55.872;37.462;2024-02-26T12:47:04;16.42;;;6.43;;
66384;SDS011;53426;55.872;37.462;2024-02-26T12:52:23;11.30;;;5.50;;
66384;SDS011;53426;55.872;37.462;2024-02-26T12:55:03;13.02;;;4.47;;
66384;SDS011;53426;55.872;37.462;2024-02-26T13:02:26;9.38;;;5.78;;
66384;SDS011;53426;55.872;37.462;2024-02-26T13:34:24;20.17;;;5.57;;
66384;SDS011;53426;55.872;37.462;2024-02-26T13:47:24;13.82;;;5.78;;
66384;SDS011;53426;55.872;37.462;2024-02-26T13:50:18;6.35;;;4.45;;
66384;SDS011;53426;55.872;37.462;2024-02-26T13:52:48;8.65;;;5.47;;
66384;SDS011;53426;55.872;37.462;2024-02-26T13:55:18;9.70;;;4.47;;
66384;SDS011;53426;55.872;37.462;2024-02-26T13:58:45;8.50;;;3.88;;
66384;SDS011;53426;55.872;37.462;2024-02-26T14:09:59;12.18;;;5.03;;
66384;SDS011;53426;55.872;37.462;2024-02-26T14:12:35;13.38;;;5.60;;
66384;SDS011;53426;55.872;37.462;2024-02-26T14:15:08;10.18;;;5.70;;
66384;SDS011;53426;55.872;37.462;2024-02-26T14:17:36;6.95;;;4.25;;
66384;SDS011;53426;55.872;37.462;2024-02-26T14:26:34;6.55;;;4.35;;
66384;SDS011;53426;55.872;37.462;2024-02-26T14:29:00;7.43;;;3.63;;
66384;SDS011;53426;55.872;37.462;2024-02-26T14:34:29;11.73;;;5.00;;
66384;SDS011;53426;55.872;37.462;2024-02-26T14:36:55;7.82;;;4.00;;
66384;SDS011;53426;55.872;37.462;2024-02-26T14:39:21;7.63;;;4.57;;
66384;SDS011;53426;55.872;37.462;2024-02-26T14:41:47;4.65;;;3.58;;
66384;SDS011;53426;55.872;37.462;2024-02-26T14:44:13;9.40;;;3.65;;
66384;SDS011;53426;55.872;37.462;2024-02-26T14:50:14;7.85;;;4.07;;
66384;SDS011;53426;55.872;37.462;2024-02-26T14:52:40;6.25;;;3.53;;
66384;SDS011;53426;55.872;37.462;2024-02-26T14:55:06;6.63;;;4.05;;
66384;SDS011;53426;55.872;37.462;2024-02-26T14:57:32;8.18;;;4.13;;
66384;SDS011;53426;55.872;37.462;2024-02-26T14:59:58;9.80;;;4.20;;
66384;SDS011;53426;55.872;37.462;2024-02-26T15:02:27;8.23;;;3.20;;
66384;SDS011;53426;55.872;37.462;2024-02-26T15:04:55;5.03;;;3.85;;
66384;SDS011;53426;55.872;37.462;2024-02-26T15:07:21;4.18;;;3.05;;
66384;SDS011;53426;55.872;37.462;2024-02-26T15:09:52;12.20;;;3.75;;
66384;SDS011;53426;55.872;37.462;2024-02-26T15:12:25;5.28;;;3.53;;
66384;SDS011;53426;55.872;37.462;2024-02-26T15:14:58;12.60;;;3.75;;
66384;SDS011;53426;55.872;37.462;2024-02-26T15:17:40;7.45;;;4.07;;
66384;SDS011;53426;55.872;37.462;2024-02-26T15:24:28;3.97;;;2.88;;
66384;SDS011;53426;55.872;37.462;2024-02-26T15:26:54;5.28;;;4.55;;
66384;SDS011;53426;55.872;37.462;2024-02-26T15:29:20;4.93;;;3.92;;
66384;SDS011;53426;55.872;37.462;2024-02-26T15:31:49;7.00;;;4.07;;
66384;SDS011;53426;55.872;37.462;2024-02-26T15:34:17;9.77;;;4.25;;
66384;SDS011;53426;55.872;37.462;2024-02-26T15:36:43;6.20;;;3.55;;
66384;SDS011;53426;55.872;37.462;2024-02-26T15:39:13;8.25;;;4.70;;
66384;SDS011;53426;55.872;37.462;2024-02-26T15:41:39;8.18;;;4.72;;
66384;SDS011;53426;55.872;37.462;2024-02-26T15:44:06;7.85;;;4.43;;
66384;SDS011;53426;55.872;37.462;2024-02-26T15:46:32;5.97;;;3.85;;
66384;SDS011;53426;55.872;37.462;2024-02-26T15:49:07;15.57;;;5.03;;
66384;SDS011;53426;55.872;37.462;2024-02-26T15:51:37;8.20;;;4.68;;
66384;SDS011;53426;55.872;37.462;2024-02-26T15:54:03;6.40;;;4.68;;
66384;SDS011;53426;55.872;37.462;2024-02-26T15:56:29;8.48;;;4.28;;
66384;SDS011;53426;55.872;37.462;2024-02-26T15:58:55;6.82;;;4.32;;
66384;SDS011;53426;55.872;37.462;2024-02-26T16:01:21;10.45;;;4.88;;
66384;SDS011;53426;55.872;37.462;2024-02-26T16:03:47;9.48;;;4.75;;
66384;SDS011;53426;55.872;37.462;2024-02-26T16:09:08;8.27;;;4.88;;
66384;SDS011;53426;55.872;37.462;2024-02-26T16:11:35;7.88;;;3.40;;
66384;SDS011;53426;55.872;37.462;2024-02-26T16:14:21;8.20;;;4.50;;
66384;SDS011;53426;55.872;37.462;2024-02-26T16:17:42;11.93;;;5.28;;
66384;SDS011;53426;55.872;37.462;2024-02-26T16:20:13;8.15;;;4.75;;
66384;SDS011;53426;55.872;37.462;2024-02-26T16:22:41;9.63;;;5.15;;
66384;SDS011;53426;55.872;37.462;2024-02-26T16:25:07;7.18;;;4.82;;
66384;SDS011;53426;55.872;37.462;2024-02-26T16:27:37;6.75;;;3.60;;
66384;SDS011;53426;55.872;37.462;2024-02-26T16:38:05;5.38;;;3.25;;
66384;SDS011;53426;55.872;37.462;2024-02-26T16:40:30;7.50;;;4.78;;
66384;SDS011;53426;55.872;37.462;2024-02-26T16:42:56;9.05;;;4.95;;
66384;SDS011;53426;55.872;37.462;2024-02-26T16:45:22;9.45;;;5.13;;
66384;SDS011;53426;55.872;37.462;2024-02-26T16:48:08;4.90;;;4.40;;
66384;SDS011;53426;55.872;37.462;2024-02-26T16:50:34;8.20;;;3.47;;
66384;SDS011;53426;55.872;37.462;2024-02-26T16:53:00;9.20;;;4.18;;
66384;SDS011;53426;55.872;37.462;2024-02-26T16:55:26;10.00;;;5.53;;
66384;SDS011;53426;55.872;37.462;2024-02-26T16:57:53;13.38;;;4.28;;
66384;SDS011;53426;55.872;37.462;2024-02-26T17:03:01;10.45;;;4.43;;
66384;SDS011;53426;55.872;37.462;2024-02-26T17:05:28;13.68;;;4.20;;
66384;SDS011;53426;55.872;37.462;2024-02-26T17:07:54;6.82;;;3.33;;
66384;SDS011;53426;55.872;37.462;2024-02-26T17:10:20;4.15;;;3.28;;
66384;SDS011;53426;55.872;37.462;2024-02-26T17:13:01;6.68;;;4.18;;
66384;SDS011;53426;55.872;37.462;2024-02-26T17:15:37;6.88;;;3.88;;
66384;SDS011;53426;55.872;37.462;2024-02-26T17:18:04;6.32;;;3.92;;
66384;SDS011;53426;55.872;37.462;2024-02-26T17:20:43;6.75;;;4.28;;
66384;SDS011;53426;55.872;37.462;2024-02-26T17:23:15;11.00;;;4.88;;
66384;SDS011;53426;55.872;37.462;2024-02-26T17:29:25;11.48;;;3.38;;
66384;SDS011;53426;55.872;37.462;2024-02-26T17:34:55;6.57;;;4.10;;
66384;SDS011;53426;55.872;37.462;2024-02-26T17:37:22;8.57;;;4.40;;
66384;SDS011;53426;55.872;37.462;2024-02-26T17:39:51;3.50;;;2.63;;
66384;SDS011;53426;55.872;37.462;2024-02-26T17:42:21;8.43;;;4.20;;
66384;SDS011;53426;55.872;37.462;2024-02-26T17:52:05;5.25;;;3.92;;
66384;SDS011;53426;55.872;37.462;2024-02-26T17:57:52;6.68;;;4.50;;
66384;SDS011;53426;55.872;37.462;2024-02-26T18:00:19;8.98;;;4.20;;
66384;SDS011;53426;55.872;37.462;2024-02-26T18:02:54;8.38;;;3.35;;
66384;SDS011;53426;55.872;37.462;2024-02-26T18:05:20;5.10;;;4.18;;
66384;SDS011;53426;55.872;37.462;2024-02-26T18:07:46;10.57;;;3.40;;
66384;SDS011;53426;55.872;37.462;2024-02-26T18:10:12;7.50;;;3.83;;
66384;SDS011;53426;55.872;37.462;2024-02-26T18:12:39;3.95;;;3.42;;
66384;SDS011;53426;55.872;37.462;2024-02-26T18:15:05;5.63;;;2.92;;
66384;SDS011;53426;55.872;37.462;2024-02-26T18:17:35;8.57;;;4.55;;
66384;SDS011;53426;55.872;37.462;2024-02-26T18:20:04;4.32;;;3.22;;
66384;SDS011;53426;55.872;37.462;2024-02-26T18:22:32;6.40;;;4.10;;
66384;SDS011;53426;55.872;37.462;2024-02-26T18:24:58;12.43;;;4.70;;
66384;SDS011;53426;55.872;37.462;2024-02-26T18:27:24;6.25;;;4.32;;
66384;SDS011;53426;55.872;37.462;2024-02-26T18:29:52;8.07;;;4.32;;
66384;SDS011;53426;55.872;37.462;2024-02-26T18:32:19;5.35;;;3.53;;
66384;SDS011;53426;55.872;37.462;2024-02-26T18:34:45;7.57;;;4.43;;
66384;SDS011;53426;55.872;37.462;2024-02-26T18:40:03;4.72;;;3.45;;
66384;SDS011;53426;55.872;37.462;2024-02-26T18:42:33;8.02;;;5.25;;
66384;SDS011;53426;55.872;37.462;2024-02-26T18:45:05;4.97;;;3.55;;
66384;SDS011;53426;55.872;37.462;2024-02-26T18:47:38;5.55;;;2.78;;
66384;SDS011;53426;55.872;37.462;2024-02-26T18:50:07;4.70;;;3.38;;
66384;SDS011;53426;55.872;37.462;2024-02-26T18:52:33;5.75;;;3.63;;
66384;SDS011;53426;55.872;37.462;2024-02-26T18:54:59;5.05;;;3.42;;
66384;SDS011;53426;55.872;37.462;2024-02-26T18:57:25;9.68;;;4.55;;
66384;SDS011;53426;55.872;37.462;2024-02-26T18:59:55;8.90;;;3.70;;
66384;SDS011;53426;55.872;37.462;2024-02-26T19:18:58;3.58;;;3.03;;
66384;SDS011;53426;55.872;37.462;2024-02-26T19:22:29;5.60;;;4.07;;
66384;SDS011;53426;55.872;37.462;2024-02-26T19:24:55;10.07;;;4.00;;
66384;SDS011;53426;55.872;37.462;2024-02-26T19:27:21;7.63;;;3.45;;
66384;SDS011;53426;55.872;37.462;2024-02-26T19:29:53;6.43;;;3.58;;
66384;SDS011;53426;55.872;37.462;2024-02-26T19:32:19;4.00;;;3.55;;
66384;SDS011;53426;55.872;37.462;2024-02-26T19:34:45;4.75;;;3.35;;
66384;SDS011;53426;55.872;37.462;2024-02-26T19:37:11;7.57;;;4.47;;
66384;SDS011;53426;55.872;37.462;2024-02-26T19:39:37;7.22;;;3.72;;
66384;SDS011;53426;55.872;37.462;2024-02-26T19:42:03;18.63;;;3.80;;
66384;SDS011;53426;55.872;37.462;2024-02-26T19:44:29;5.55;;;4.40;;
66384;SDS011;53426;55.872;37.462;2024-02-26T19:54:20;6.70;;;4.45;;
66384;SDS011;53426;55.872;37.462;2024-02-26T19:56:49;8.82;;;3.88;;
66384;SDS011;53426;55.872;37.462;2024-02-26T19:59:16;7.72;;;4.55;;
66384;SDS011;53426;55.872;37.462;2024-02-26T20:01:42;4.90;;;4.28;;
66384;SDS011;53426;55.872;37.462;2024-02-26T20:04:09;4.97;;;3.78;;
66384;SDS011;53426;55.872;37.462;2024-02-26T20:06:42;6.75;;;4.18;;
66384;SDS011;53426;55.872;37.462;2024-02-26T20:15:47;5.55;;;3.08;;
66384;SDS011;53426;55.872;37.462;2024-02-26T20:18:13;4.88;;;3.38;;
66384;SDS011;53426;55.872;37.462;2024-02-26T20:20:39;13.10;;;3.58;;
66384;SDS011;53426;55.872;37.462;2024-02-26T20:23:05;7.00;;;3.50;;
66384;SDS011;53426;55.872;37.462;2024-02-26T20:25:31;6.72;;;3.30;;
66384;SDS011;53426;55.872;37.462;2024-02-26T20:27:57;4.32;;;3.25;;